Time;durP1;ratioP1;P1;durP2;ratioP2;P2;SDS_P1;SDS_P2;PMS_P1;PMS_P2;Temp;Humidity;BMP_temperature;BMP_pressure;BME280_temperature;BME280_humidity;BME280_pressure;Samples;Min_cycle;Max_cycle;Signal;HPM_P1;HPM_P2
2023/01/11 00:00:55;;;;;;;43.70;28.90;;;;;;;3.59;89.66;99182.09;89783;1270;22538;-72
2023/01/11 00:02:58;;;;;;;41.00;28.40;;;;;;;3.58;89.49;99182.44;89676;1262;98269;-72
2023/01/11 00:05:00;;;;;;;44.40;30.00;;;;;;;3.56;89.47;99179.20;89461;1265;24175;-70
2023/01/11 00:07:02;;;;;;;42.00;28.90;;;;;;;3.54;89.42;99176.25;89469;1270;22467;-71
2023/01/11 00:09:03;;;;;;;42.80;29.90;;;;;;;3.54;89.61;99179.03;89523;1265;98140;-72
2023/01/11 00:11:13;;;;;;;43.50;29.90;;;;;;;3.54;89.56;99177.83;89598;1269;24355;-71
2023/01/11 00:13:16;;;;;;;40.80;29.00;;;;;;;3.53;89.41;99180.96;89523;1270;23041;-71
2023/01/11 00:15:17;;;;;;;43.10;29.90;;;;;;;3.52;89.46;99175.61;89459;1269;99050;-70
2023/01/11 00:17:19;;;;;;;49.50;29.70;;;;;;;3.52;89.66;99173.00;89626;1268;22512;-71
2023/01/11 00:19:21;;;;;;;41.30;29.10;;;;;;;3.51;89.56;99170.41;89419;1264;23985;-72
2023/01/11 00:21:22;;;;;;;40.20;30.00;;;;;;;3.50;89.61;99169.74;89491;1269;99265;-71
2023/01/11 00:23:24;;;;;;;45.70;30.40;;;;;;;3.48;89.45;99167.15;89578;1256;25502;-71
2023/01/11 00:25:26;;;;;;;46.80;30.20;;;;;;;3.48;89.63;99166.99;89593;1262;25469;-73
2023/01/11 00:27:28;;;;;;;46.10;31.80;;;;;;;3.46;89.65;99169.79;89433;1270;99669;-71
2023/01/11 00:29:30;;;;;;;48.70;30.90;;;;;;;3.46;89.45;99169.46;89640;1267;22534;-72
2023/01/11 00:31:31;;;;;;;44.00;31.00;;;;;;;3.45;89.48;99172.08;89681;1269;22662;-71
2023/01/11 00:33:33;;;;;;;52.50;31.90;;;;;;;3.45;89.51;99175.54;89604;1273;98303;-71
2023/01/11 00:35:35;;;;;;;53.30;32.80;;;;;;;3.42;89.38;99174.91;89551;1265;22670;-71
2023/01/11 00:37:38;;;;;;;46.60;30.80;;;;;;;3.42;89.70;99180.98;89605;1267;22753;-72
2023/01/11 00:39:40;;;;;;;48.90;30.60;;;;;;;3.41;89.80;99189.32;89516;1258;98358;-71
2023/01/11 00:48:44;;;;;;;49.90;31.40;;;;;;;3.41;89.46;99192.98;89711;1272;22656;-71
2023/01/11 00:50:45;;;;;;;53.30;31.40;;;;;;;3.40;89.45;99192.64;89396;1263;99264;-71
2023/01/11 00:52:47;;;;;;;50.70;32.40;;;;;;;3.40;89.72;99193.16;89556;1262;24267;-71
2023/01/11 00:54:49;;;;;;;46.90;31.00;;;;;;;3.40;89.54;99192.47;89589;1261;23703;-72
2023/01/11 00:56:51;;;;;;;50.00;31.40;;;;;;;3.40;89.66;99191.60;89578;1269;99174;-72
2023/01/11 00:58:52;;;;;;;49.60;30.70;;;;;;;3.38;89.58;99190.77;89630;1269;22533;-70
2023/01/11 01:00:54;;;;;;;48.50;31.70;;;;;;;3.35;89.33;99192.38;89515;1254;22529;-71
2023/01/11 01:02:56;;;;;;;40.80;29.20;;;;;;;3.32;89.47;99189.64;89574;1270;98218;-71
2023/01/11 01:04:59;;;;;;;41.90;30.10;;;;;;;3.30;89.38;99197.14;89678;1269;22556;-71
2023/01/11 01:07:00;;;;;;;43.40;29.20;;;;;;;3.27;89.26;99195.10;89331;1273;241033;-72
2023/01/11 01:09:02;;;;;;;42.60;29.00;;;;;;;3.24;89.19;99196.71;89467;1271;99553;-72
2023/01/11 01:11:04;;;;;;;45.40;28.60;;;;;;;3.21;89.35;99199.88;89508;1271;22535;-73
2023/01/11 01:15:33;;;;;;;43.80;29.00;;;;;;;3.18;89.29;99205.11;89406;1271;99111;-72
2023/01/11 01:17:34;;;;;;;42.40;28.40;;;;;;;3.18;89.43;99202.17;89592;1261;22901;-72
2023/01/11 01:19:37;;;;;;;44.20;29.60;;;;;;;3.18;89.40;99199.92;89741;1262;22681;-72
2023/01/11 01:21:39;;;;;;;45.90;30.00;;;;;;;3.17;89.48;99200.11;89629;1269;99467;-72
2023/01/11 01:23:40;;;;;;;48.10;31.80;;;;;;;3.18;89.57;99205.13;89683;1269;22570;-72
2023/01/11 01:25:42;;;;;;;46.30;31.70;;;;;;;3.18;89.48;99199.39;89679;1262;23005;-71
2023/01/11 01:27:44;;;;;;;42.20;29.30;;;;;;;3.18;89.37;99207.38;89543;1269;99044;-71
2023/01/11 01:29:46;;;;;;;46.90;29.60;;;;;;;3.18;89.29;99205.30;89592;1268;23708;-72
2023/01/11 01:31:48;;;;;;;45.20;30.20;;;;;;;3.17;89.43;99201.66;89501;1270;24339;-72
2023/01/11 01:33:49;;;;;;;50.20;31.10;;;;;;;3.16;89.54;99200.65;89419;1271;22942;-72
2023/01/11 01:35:51;;;;;;;46.90;32.00;;;;;;;3.16;89.59;99199.27;89661;1262;22598;-72
2023/01/11 01:37:53;;;;;;;47.10;31.10;;;;;;;3.17;89.54;99199.25;89514;1269;98762;-72
2023/01/11 01:39:54;;;;;;;48.10;32.70;;;;;;;3.17;89.57;99195.25;89471;1271;23127;-72
2023/01/11 01:41:57;;;;;;;49.40;32.00;;;;;;;3.18;89.65;99197.48;89665;1267;22575;-72
2023/01/11 01:44:03;;;;;;;50.90;31.50;;;;;;;3.20;89.63;99197.80;89492;1260;98467;-71
2023/01/11 01:46:05;;;;;;;45.50;30.10;;;;;;;3.21;89.73;99199.36;89503;1270;22543;-70
2023/01/11 01:48:11;;;;;;;43.60;29.50;;;;;;;3.22;89.63;99197.25;89542;1269;22564;-71
2023/01/11 01:50:26;;;;;;;51.10;32.20;;;;;;;3.21;89.77;99199.00;89425;1271;98359;-71
2023/01/11 01:52:30;;;;;;;52.10;32.50;;;;;;;3.21;89.51;99192.92;89627;1269;22733;-72
2023/01/11 01:54:38;;;;;;;55.00;33.80;;;;;;;3.22;89.71;99194.81;89520;1270;24154;-72
2023/01/11 01:56:49;;;;;;;51.50;33.60;;;;;;;3.23;89.80;99193.95;89424;1269;99420;-72
2023/01/11 01:58:56;;;;;;;51.40;32.70;;;;;;;3.23;89.74;99190.65;89516;1271;22687;-72
2023/01/11 02:01:45;;;;;;;52.60;33.90;;;;;;;3.24;89.71;99197.41;89615;1267;24325;-72
2023/01/11 02:03:25;;;;;;;55.50;31.60;;;;;;;3.26;89.65;99200.15;89581;1269;99149;-72
2023/01/11 02:05:28;;;;;;;45.40;30.80;;;;;;;3.26;89.74;99198.95;89602;1272;26128;-72
2023/01/11 02:07:36;;;;;;;50.20;32.60;;;;;;;3.25;89.41;99194.25;89657;1269;22635;-72
2023/01/11 02:09:44;;;;;;;52.40;33.00;;;;;;;3.27;89.66;99197.36;89626;1268;99319;-72
2023/01/11 02:11:46;;;;;;;67.20;36.50;;;;;;;3.25;89.61;99194.79;89698;1265;24252;-72
2023/01/11 02:13:48;;;;;;;53.90;34.00;;;;;;;3.24;89.51;99196.19;89649;1269;22724;-72
2023/01/11 02:16:06;;;;;;;54.30;33.60;;;;;;;3.25;89.63;99198.09;89494;1271;24177;-72
2023/01/11 02:18:12;;;;;;;54.10;33.90;;;;;;;3.24;89.69;99198.09;89685;1262;22548;-72
2023/01/11 02:20:26;;;;;;;58.20;35.80;;;;;;;3.23;89.64;99198.10;89493;1270;98009;-69
2023/01/11 02:22:30;;;;;;;53.90;34.70;;;;;;;3.24;89.56;99198.43;89725;1267;23464;-71
2023/01/11 02:24:55;;;;;;;56.40;34.00;;;;;;;3.24;89.75;99199.84;89572;1269;23872;-71
2023/01/11 02:27:26;;;;;;;62.10;34.80;;;;;;;3.24;89.58;99194.96;89548;1269;98564;-71
2023/01/11 02:30:07;;;;;;;51.70;33.90;;;;;;;3.24;89.69;99193.94;89309;1272;23512;-72
2023/01/11 02:32:38;;;;;;;53.70;33.80;;;;;;;3.23;89.62;99195.33;89245;1275;99455;-72
2023/01/11 02:34:51;;;;;;;56.80;33.50;;;;;;;3.22;89.48;99198.28;89251;1275;22570;-72
2023/01/11 02:37:13;;;;;;;57.80;34.90;;;;;;;3.23;89.77;99200.55;89229;1276;24341;-72
2023/01/11 02:39:47;;;;;;;56.40;33.90;;;;;;;3.21;89.47;99199.34;88963;1271;99208;-71
2023/01/11 02:47:06;;;;;;;56.50;33.60;;;;;;;3.18;89.70;99189.66;88912;1279;22647;-71
2023/01/11 02:49:12;;;;;;;49.80;33.20;;;;;;;3.19;89.64;99190.52;89002;1273;24671;-72
2023/01/11 02:51:32;;;;;;;57.40;35.70;;;;;;;3.19;89.81;99189.48;89056;1279;99119;-71
2023/01/11 02:53:47;;;;;;;59.90;37.00;;;;;;;3.18;89.72;99192.11;88972;1279;24193;-72
2023/01/11 02:55:55;;;;;;;57.40;35.50;;;;;;;3.18;89.72;99198.19;88858;1278;23241;-72
2023/01/11 02:58:01;;;;;;;55.20;35.70;;;;;;;3.18;89.63;99200.27;88963;1279;22573;-70
2023/01/11 03:00:04;;;;;;;62.80;34.70;;;;;;;3.15;89.57;99199.95;88979;1281;22646;-70
2023/01/11 03:02:06;;;;;;;56.90;36.60;;;;;;;3.13;89.60;99196.00;88846;1280;98774;-70
2023/01/11 03:04:39;;;;;;;55.60;37.00;;;;;;;3.11;89.53;99194.81;88900;1281;23245;-72
2023/01/11 03:06:40;;;;;;;57.80;38.30;;;;;;;3.11;89.31;99193.59;88908;1278;25589;-72
2023/01/11 03:08:45;;;;;;;56.50;34.40;;;;;;;3.12;89.73;99190.29;88881;1275;98876;-71
2023/01/11 03:10:55;;;;;;;51.20;33.00;;;;;;;3.04;89.67;99172.52;89193;1275;24199;-71
2023/01/11 03:13:31;;;;;;;51.50;33.30;;;;;;;3.13;89.59;99184.20;89173;1276;22532;-71
2023/01/11 03:15:42;;;;;;;55.50;33.90;;;;;;;3.13;89.69;99188.36;89048;1280;98153;-72
2023/01/11 03:18:02;;;;;;;54.30;33.80;;;;;;;3.14;89.59;99186.43;89610;1269;23261;-71
2023/01/11 03:20:08;;;;;;;56.50;35.20;;;;;;;3.15;89.84;99187.98;89517;1262;100198;-71
2023/01/11 03:22:25;;;;;;;60.60;38.00;;;;;;;3.13;89.75;99191.30;89608;1270;24510;-71
2023/01/11 03:24:32;;;;;;;63.30;38.10;;;;;;;3.13;89.74;99196.86;89539;1270;22562;-71
2023/01/11 03:26:56;;;;;;;62.00;37.50;;;;;;;3.13;89.73;99195.83;89554;1262;98608;-71
2023/01/11 03:29:10;;;;;;;59.50;38.50;;;;;;;3.14;89.60;99197.39;89623;1269;25552;-70
2023/01/11 03:31:24;;;;;;;64.10;37.30;;;;;;;3.14;89.77;99194.95;89506;1271;25902;-70
2023/01/11 03:33:37;;;;;;;59.10;38.40;;;;;;;3.16;89.86;99193.69;89466;1270;99713;-72
2023/01/11 03:36:07;;;;;;;57.70;39.30;;;;;;;3.16;89.58;99197.52;89490;1262;22448;-72
2023/01/11 03:38:17;;;;;;;74.70;42.80;;;;;;;3.16;89.79;99193.70;89538;1270;99314;-71
2023/01/11 03:40:54;;;;;;;64.70;42.20;;;;;;;3.17;89.92;99190.74;89428;1270;25430;-72
2023/01/11 03:43:12;;;;;;;62.30;36.30;;;;;;;3.18;89.66;99188.30;89605;1269;23751;-71
2023/01/11 03:45:15;;;;;;;58.30;38.60;;;;;;;3.18;89.71;99191.93;89378;1272;99214;-71
2023/01/11 03:47:21;;;;;;;62.20;39.00;;;;;;;3.17;89.59;99186.23;89611;1265;22537;-71
2023/01/11 03:49:30;;;;;;;56.20;35.90;;;;;;;3.16;89.72;99188.32;89701;1270;22676;-71
2023/01/11 03:51:37;;;;;;;59.40;35.70;;;;;;;3.15;89.68;99192.50;89626;1264;98147;-71
2023/01/11 03:53:45;;;;;;;57.60;37.40;;;;;;;3.14;89.76;99194.09;89719;1269;22562;-71
2023/01/11 03:55:54;;;;;;;58.20;35.30;;;;;;;3.13;89.53;99197.40;89922;1268;22622;-70
2023/01/11 03:57:57;;;;;;;60.10;38.80;;;;;;;3.12;89.51;99195.31;89432;1268;24189;-70
2023/01/11 03:59:59;;;;;;;66.80;40.80;;;;;;;3.12;89.54;99195.33;89334;1274;22596;-71
2023/01/11 04:02:01;;;;;;;61.00;41.00;;;;;;;3.10;89.62;99191.35;89311;1274;100982;-71
2023/01/11 04:04:03;;;;;;;67.40;42.10;;;;;;;3.10;89.68;99187.70;89515;1255;24200;-72
2023/01/11 04:06:06;;;;;;;69.70;41.30;;;;;;;3.09;89.70;99180.96;89447;1270;22652;-72
2023/01/11 04:08:07;;;;;;;64.10;43.00;;;;;;;3.08;89.73;99179.40;89314;1265;98988;-72
2023/01/11 04:10:10;;;;;;;65.00;41.80;;;;;;;3.09;89.68;99179.73;89407;1276;22582;-70
2023/01/11 04:12:11;;;;;;;63.80;40.60;;;;;;;3.09;89.53;99181.29;89421;1270;24387;-73
2023/01/11 04:14:13;;;;;;;64.60;40.70;;;;;;;3.08;89.60;99180.10;89461;1269;102094;-71
2023/01/11 04:16:15;;;;;;;65.40;41.50;;;;;;;3.07;89.49;99178.73;89589;1273;22684;-72
2023/01/11 04:18:16;;;;;;;61.20;41.60;;;;;;;3.04;89.61;99175.13;89550;1270;22776;-71
2023/01/11 04:20:18;;;;;;;66.60;38.50;;;;;;;3.08;89.68;99179.59;89381;1264;100239;-72
2023/01/11 04:22:20;;;;;;;72.90;39.40;;;;;;;3.06;89.78;99177.70;89537;1269;22625;-72
2023/01/11 04:24:21;;;;;;;66.40;41.40;;;;;;;3.06;89.48;99178.73;89559;1268;22566;-72
2023/01/11 04:26:23;;;;;;;62.60;39.90;;;;;;;3.06;89.77;99177.02;89405;1267;99117;-72
2023/01/11 04:28:25;;;;;;;68.30;41.60;;;;;;;3.07;89.48;99179.77;89397;1271;24332;-71
2023/01/11 04:30:26;;;;;;;73.50;43.30;;;;;;;3.07;89.70;99179.77;89396;1273;24215;-71
2023/01/11 04:32:28;;;;;;;68.00;41.40;;;;;;;3.07;89.69;99173.17;89597;1268;98146;-71
2023/01/11 04:34:30;;;;;;;64.70;40.10;;;;;;;3.08;89.68;99172.63;89464;1271;24178;-72
2023/01/11 04:36:32;;;;;;;70.70;42.10;;;;;;;3.08;89.67;99170.73;89692;1271;24232;-72
2023/01/11 04:38:34;;;;;;;69.10;40.70;;;;;;;3.08;89.63;99172.98;89500;1269;98863;-72
2023/01/11 04:40:36;;;;;;;71.10;45.00;;;;;;;3.09;89.75;99175.21;89569;1269;24320;-73
2023/01/11 04:42:37;;;;;;;71.30;42.80;;;;;;;3.09;89.65;99175.23;89564;1271;24197;-71
2023/01/11 04:44:39;;;;;;;66.60;43.00;;;;;;;3.09;89.54;99172.27;89442;1273;98162;-71
2023/01/11 04:46:41;;;;;;;65.10;42.50;;;;;;;3.06;89.53;99168.33;89430;1272;24952;-71
2023/01/11 04:48:42;;;;;;;65.60;41.10;;;;;;;3.05;89.54;99167.65;89557;1275;23335;-72
2023/01/11 04:50:47;;;;;;;72.30;40.50;;;;;;;3.03;89.50;99164.20;89488;1272;99326;-71
2023/01/11 04:52:50;;;;;;;69.20;45.10;;;;;;;3.03;89.71;99166.96;89690;1269;24154;-72
2023/01/11 04:54:52;;;;;;;64.70;42.60;;;;;;;3.04;89.66;99165.58;89590;1270;23467;-71
2023/01/11 04:56:54;;;;;;;69.50;42.50;;;;;;;3.03;89.75;99162.98;89514;1270;99233;-71
2023/01/11 04:58:57;;;;;;;70.20;42.40;;;;;;;3.04;89.78;99167.30;89636;1275;23515;-72
2023/01/11 05:00:58;;;;;;;74.00;43.10;;;;;;;3.04;89.85;99168.00;89601;1272;25428;-70
2023/01/11 05:03:00;;;;;;;64.80;41.00;;;;;;;3.05;89.65;99168.35;89546;1266;99256;-70
2023/01/11 05:05:03;;;;;;;64.10;43.20;;;;;;;3.05;89.53;99169.05;89528;1272;23142;-72
2023/01/11 05:07:07;;;;;;;65.30;41.80;;;;;;;3.04;89.71;99172.34;89519;1273;22623;-70
2023/01/11 05:09:14;;;;;;;73.10;42.90;;;;;;;3.04;89.96;99169.73;89532;1271;99922;-69
2023/01/11 05:11:17;;;;;;;68.00;44.70;;;;;;;3.04;89.86;99170.08;89586;1276;22745;-70
2023/01/11 05:13:19;;;;;;;77.50;47.40;;;;;;;3.03;89.52;99166.45;89756;1273;22563;-71
2023/01/11 05:15:21;;;;;;;75.90;49.00;;;;;;;3.04;89.72;99168.52;89270;1272;99315;-72
2023/01/11 05:17:24;;;;;;;79.00;49.70;;;;;;;3.03;89.64;99170.45;89451;1272;24672;-70
2023/01/11 05:19:25;;;;;;;79.60;48.60;;;;;;;3.00;89.61;99171.55;89520;1270;23130;-71
2023/01/11 05:21:30;;;;;;;73.10;48.00;;;;;;;2.98;89.51;99172.42;89537;1269;99221;-70
2023/01/11 05:23:34;;;;;;;84.70;50.00;;;;;;;2.98;89.72;99176.95;89562;1259;24286;-70
2023/01/11 05:25:36;;;;;;;83.90;48.10;;;;;;;2.98;89.65;99174.86;89512;1269;22655;-71
2023/01/11 05:27:38;;;;;;;67.30;44.90;;;;;;;2.96;89.56;99173.86;89323;1271;99366;-71
2023/01/11 05:29:40;;;;;;;77.30;44.90;;;;;;;2.95;89.65;99174.91;89610;1260;25536;-70
2023/01/11 05:31:41;;;;;;;66.00;43.90;;;;;;;2.95;89.74;99169.35;89583;1268;22627;-70
2023/01/11 05:33:44;;;;;;;64.10;44.20;;;;;;;2.93;89.55;99169.73;89416;1273;99305;-71
2023/01/11 05:35:45;;;;;;;71.10;42.90;;;;;;;2.93;89.51;99166.96;89437;1272;22775;-71
2023/01/11 05:37:47;;;;;;;74.60;45.70;;;;;;;2.90;89.71;99165.77;89456;1275;22610;-70
2023/01/11 05:39:49;;;;;;;72.60;44.40;;;;;;;2.90;89.64;99165.23;89341;1272;98406;-73
2023/01/11 05:41:51;;;;;;;75.40;47.00;;;;;;;2.90;89.67;99165.08;89378;1272;22537;-71
2023/01/11 05:46:14;;;;;;;74.00;46.60;;;;;;;2.88;89.69;99163.71;89697;1270;23387;-70
2023/01/11 05:48:17;;;;;;;77.20;46.40;;;;;;;2.86;89.66;99161.84;89585;1268;22578;-71
2023/01/11 05:50:20;;;;;;;73.70;47.60;;;;;;;2.85;89.47;99166.02;89515;1270;98301;-72
2023/01/11 05:52:22;;;;;;;76.90;48.10;;;;;;;2.85;89.70;99161.15;89551;1272;25339;-72
2023/01/11 05:54:24;;;;;;;73.00;46.50;;;;;;;2.83;89.50;99160.32;89553;1267;25585;-73
2023/01/11 05:56:26;;;;;;;79.10;47.50;;;;;;;2.81;89.52;99162.41;89436;1270;98093;-72
2023/01/11 05:58:28;;;;;;;73.30;45.80;;;;;;;2.78;89.60;99161.25;89664;1269;22999;-72
2023/01/11 06:00:29;;;;;;;75.90;48.20;;;;;;;2.75;89.40;99156.79;89581;1269;25281;-72
2023/01/11 06:02:33;;;;;;;81.00;49.30;;;;;;;2.72;89.46;99155.08;89508;1264;98090;-72
2023/01/11 06:04:35;;;;;;;83.90;50.50;;;;;;;2.68;89.25;99151.14;89561;1270;24241;-71
2023/01/11 06:06:36;;;;;;;83.80;52.10;;;;;;;2.66;89.47;99150.14;89673;1270;22549;-72
2023/01/11 06:08:38;;;;;;;93.40;57.20;;;;;;;2.64;89.59;99147.38;89485;1268;99498;-71
2023/01/11 06:10:40;;;;;;;82.00;53.20;;;;;;;2.64;89.58;99143.39;89628;1269;22536;-72
2023/01/11 06:12:42;;;;;;;83.60;52.40;;;;;;;2.65;89.56;99145.12;89542;1267;22531;-72
2023/01/11 06:14:43;;;;;;;83.90;52.60;;;;;;;2.66;89.83;99148.39;89537;1270;99762;-72
2023/01/11 06:16:45;;;;;;;92.30;54.60;;;;;;;2.65;89.67;99149.27;89480;1272;22478;-70
2023/01/11 06:18:49;;;;;;;83.80;52.10;;;;;;;2.64;89.67;99149.82;89627;1267;22530;-71
2023/01/11 06:20:53;;;;;;;97.40;52.70;;;;;;;2.63;89.63;99148.62;89831;1264;99393;-73
2023/01/11 06:22:54;;;;;;;91.40;49.90;;;;;;;2.61;89.40;99146.39;89801;1269;22528;-71
2023/01/11 06:24:56;;;;;;;87.70;49.70;;;;;;;2.57;89.36;99152.16;89486;1271;23024;-72
2023/01/11 06:26:58;;;;;;;75.90;51.00;;;;;;;2.55;89.55;99147.84;89389;1273;98438;-73
2023/01/11 06:29:00;;;;;;;81.90;50.20;;;;;;;2.53;89.67;99148.91;89596;1270;22543;-73
2023/01/11 06:31:02;;;;;;;91.10;53.90;;;;;;;2.52;89.62;99148.75;89597;1272;22535;-73
2023/01/11 06:33:05;;;;;;;97.20;56.20;;;;;;;2.51;89.39;99150.15;89452;1270;99541;-71
2023/01/11 06:35:07;;;;;;;102.00;57.30;;;;;;;2.52;89.66;99146.67;89590;1271;23190;-71
2023/01/11 06:37:09;;;;;;;92.60;58.10;;;;;;;2.53;89.61;99144.58;89594;1270;22693;-71
2023/01/11 06:39:10;;;;;;;98.00;55.70;;;;;;;2.53;89.52;99146.48;89550;1262;99345;-71
2023/01/11 06:41:12;;;;;;;93.30;57.40;;;;;;;2.55;89.88;99144.73;89629;1270;25291;-71
2023/01/11 06:43:14;;;;;;;97.00;60.20;;;;;;;2.55;89.60;99146.98;89164;1270;26451;-71
2023/01/11 06:45:16;;;;;;;94.50;60.30;;;;;;;2.54;89.52;99146.48;88823;1272;99250;-71
2023/01/11 06:47:17;;;;;;;98.10;60.00;;;;;;;2.55;89.47;99148.02;88881;1264;22814;-71
2023/01/11 06:49:19;;;;;;;103.20;66.10;;;;;;;2.57;89.48;99148.70;89030;1267;22526;-72
2023/01/11 06:51:21;;;;;;;103.50;65.90;;;;;;;2.57;89.59;99152.16;89019;1266;99861;-72
2023/01/11 06:53:24;;;;;;;123.00;72.90;;;;;;;2.57;89.64;99158.23;88966;1270;22539;-72
2023/01/11 06:55:27;;;;;;;115.40;68.80;;;;;;;2.56;89.81;99157.02;89048;1262;25290;-72
2023/01/11 06:57:29;;;;;;;115.60;68.50;;;;;;;2.56;89.70;99158.24;88792;1264;99825;-72
2023/01/11 06:59:30;;;;;;;124.40;67.40;;;;;;;2.57;89.76;99156.33;89013;1264;24360;-72
2023/01/11 07:01:32;;;;;;;132.70;75.80;;;;;;;2.58;89.48;99150.23;89029;1270;25240;-72
2023/01/11 07:03:34;;;;;;;141.20;74.40;;;;;;;2.61;89.86;99152.29;88986;1257;99662;-73
2023/01/11 07:05:36;;;;;;;124.50;72.30;;;;;;;2.62;89.74;99152.09;88984;1270;22560;-74
2023/01/11 07:07:39;;;;;;;134.40;77.20;;;;;;;2.62;89.54;99149.15;88805;1273;23011;-74
2023/01/11 07:09:41;;;;;;;146.30;83.30;;;;;;;2.64;89.59;99147.56;88920;1267;99258;-71
2023/01/11 07:11:42;;;;;;;127.90;75.00;;;;;;;2.65;89.90;99144.59;88784;1272;24622;-74
2023/01/11 07:13:44;;;;;;;141.60;79.30;;;;;;;2.65;89.75;99142.69;88936;1270;22540;-74
2023/01/11 07:15:49;;;;;;;152.40;80.70;;;;;;;2.65;89.66;99140.09;88890;1270;99221;-74
2023/01/11 07:17:55;;;;;;;151.00;79.90;;;;;;;2.65;89.72;99135.56;89102;1266;22587;-74
2023/01/11 07:19:57;;;;;;;149.30;77.50;;;;;;;2.65;89.73;99135.73;88947;1270;22604;-75
2023/01/11 07:21:59;;;;;;;128.50;70.60;;;;;;;2.66;89.56;99135.90;88817;1270;98340;-73
2023/01/11 07:24:01;;;;;;;133.30;74.80;;;;;;;2.67;89.69;99140.40;88978;1264;24224;-73
2023/01/11 07:26:03;;;;;;;129.00;71.40;;;;;;;2.67;89.49;99145.95;88853;1270;100963;-73
2023/01/11 07:28:07;;;;;;;130.10;70.10;;;;;;;2.67;89.99;99144.73;88893;1263;23970;-73
2023/01/11 07:30:09;;;;;;;136.10;71.60;;;;;;;2.68;89.67;99143.86;88870;1263;22786;-72
2023/01/11 07:32:11;;;;;;;148.50;79.00;;;;;;;2.69;89.97;99145.92;89199;1269;99228;-74
2023/01/11 07:34:13;;;;;;;131.80;71.20;;;;;;;2.68;89.63;99144.55;89284;1270;24317;-74
2023/01/11 07:36:15;;;;;;;148.00;73.70;;;;;;;2.69;90.02;99140.39;89080;1267;23058;-74
2023/01/11 07:38:16;;;;;;;147.60;76.60;;;;;;;2.68;90.05;99136.73;88937;1267;98377;-73
2023/01/11 07:40:18;;;;;;;144.60;76.50;;;;;;;2.70;90.14;99140.01;89210;1269;22651;-73
2023/01/11 07:44:41;;;;;;;159.90;82.30;;;;;;;2.73;89.90;99145.71;88957;1269;100490;-73
2023/01/11 07:46:42;;;;;;;151.90;83.00;;;;;;;2.74;90.01;99144.80;89075;1267;22582;-73
2023/01/11 07:48:44;;;;;;;152.50;82.60;;;;;;;2.74;90.17;99140.13;88885;1268;22573;-75
2023/01/11 07:50:46;;;;;;;151.70;80.60;;;;;;;2.78;90.10;99144.08;88837;1263;99231;-73
2023/01/11 07:52:49;;;;;;;150.80;81.40;;;;;;;2.80;89.77;99142.14;89160;1270;24227;-73
2023/01/11 07:54:50;;;;;;;149.70;80.10;;;;;;;2.82;89.95;99138.63;88961;1269;22846;-74
2023/01/11 07:56:52;;;;;;;159.00;78.90;;;;;;;2.84;90.15;99141.91;88924;1270;99680;-74
2023/01/11 07:58:54;;;;;;;139.60;73.10;;;;;;;2.86;90.09;99136.30;88949;1270;24385;-75
2023/01/11 08:00:58;;;;;;;150.10;77.90;;;;;;;2.88;90.00;99135.08;88822;1271;22558;-73
2023/01/11 08:03:01;;;;;;;150.60;77.70;;;;;;;2.92;89.93;99131.38;89229;1270;99280;-72
2023/01/11 08:05:03;;;;;;;163.10;78.60;;;;;;;2.94;90.16;99129.27;89001;1263;24292;-73
2023/01/11 08:07:05;;;;;;;181.20;75.30;;;;;;;2.97;90.27;99124.03;88889;1267;22544;-73
2023/01/11 08:09:09;;;;;;;150.70;74.50;;;;;;;2.97;90.03;99119.15;88913;1268;100303;-73
2023/01/11 08:15:51;;;;;;;189.50;74.10;;;;;;;3.03;90.11;99124.98;89109;1260;99759;-74
2023/01/11 08:17:53;;;;;;;177.00;72.90;;;;;;;3.05;90.04;99122.49;89125;1270;22543;-76
2023/01/11 08:19:55;;;;;;;170.30;74.00;;;;;;;3.08;90.01;99114.82;89096;1271;22543;-75
2023/01/11 08:21:56;;;;;;;169.50;75.70;;;;;;;3.11;90.08;99113.73;88949;1264;99347;-75
2023/01/11 08:23:58;;;;;;;190.80;77.70;;;;;;;3.14;90.21;99108.48;89341;1260;26376;-73
2023/01/11 08:26:01;;;;;;;185.50;78.30;;;;;;;3.16;90.15;99104.80;89221;1269;25830;-72
2023/01/11 08:28:06;;;;;;;182.60;80.80;;;;;;;3.18;90.14;99103.70;88934;1269;22554;-72
2023/01/11 08:30:08;;;;;;;193.10;78.60;;;;;;;3.22;90.03;99101.91;89114;1258;22605;-72
2023/01/11 08:32:11;;;;;;;156.90;74.90;;;;;;;3.26;90.19;99098.05;89029;1265;99686;-73
2023/01/11 08:34:13;;;;;;;296.60;78.70;;;;;;;3.29;90.31;99098.35;89067;1254;22699;-74
2023/01/11 08:36:15;;;;;;;181.50;78.30;;;;;;;3.30;90.08;99100.77;88892;1264;22567;-73
2023/01/11 08:38:17;;;;;;;238.30;78.20;;;;;;;3.33;90.28;99106.96;88817;1270;99728;-72
2023/01/11 08:40:19;;;;;;;225.00;68.80;;;;;;;3.33;90.20;99111.65;88925;1269;23008;-72
2023/01/11 08:42:21;;;;;;;427.80;76.00;;;;;;;3.32;90.00;99114.60;88948;1262;23251;-73
2023/01/11 08:44:22;;;;;;;251.60;71.50;;;;;;;3.32;90.08;99118.44;88981;1260;101598;-72
2023/01/11 08:46:24;;;;;;;168.70;70.70;;;;;;;3.28;90.03;99120.41;89062;1262;24733;-74
2023/01/11 08:48:26;;;;;;;145.60;68.70;;;;;;;3.28;89.86;99123.91;89163;1267;24242;-72
2023/01/11 08:50:28;;;;;;;192.50;74.00;;;;;;;3.23;89.86;99121.36;89060;1268;98290;-72
2023/01/11 08:52:29;;;;;;;145.90;70.80;;;;;;;3.22;90.01;99123.45;89130;1270;26478;-72
2023/01/11 08:54:31;;;;;;;158.90;76.80;;;;;;;3.23;90.08;99127.27;89114;1269;25582;-73
2023/01/11 08:56:33;;;;;;;170.20;79.50;;;;;;;3.26;89.95;99126.86;89039;1259;99406;-72
2023/01/11 08:58:35;;;;;;;176.10;84.20;;;;;;;3.30;89.99;99128.54;89080;1270;24257;-72
2023/01/11 09:00:38;;;;;;;164.40;81.20;;;;;;;3.33;90.22;99128.15;89149;1269;22575;-72
2023/01/11 09:02:40;;;;;;;159.70;83.00;;;;;;;3.36;90.00;99126.36;89136;1268;98164;-73
2023/01/11 09:04:41;;;;;;;167.90;81.70;;;;;;;3.39;90.38;99128.23;89070;1260;25104;-72
2023/01/11 09:06:43;;;;;;;189.10;90.30;;;;;;;3.42;90.23;99125.74;89089;1269;24365;-73
2023/01/11 09:08:46;;;;;;;173.30;86.70;;;;;;;3.45;90.22;99121.17;88952;1268;99989;-72
2023/01/11 09:10:49;;;;;;;172.40;85.60;;;;;;;3.47;90.24;99111.41;89007;1270;23007;-72
2023/01/11 09:12:50;;;;;;;168.80;83.00;;;;;;;3.49;90.15;99106.69;89150;1262;23099;-73
2023/01/11 09:14:52;;;;;;;162.00;85.80;;;;;;;3.52;90.08;99105.42;88931;1270;99660;-73
2023/01/11 09:16:55;;;;;;;157.00;86.70;;;;;;;3.55;90.13;99103.79;89005;1262;25007;-73
2023/01/11 09:18:57;;;;;;;142.70;77.30;;;;;;;3.59;90.35;99104.95;89168;1261;22988;-72
2023/01/11 09:20:59;;;;;;;146.30;74.00;;;;;;;3.63;90.26;99099.49;88883;1258;99567;-72
2023/01/11 09:23:00;;;;;;;144.80;77.80;;;;;;;3.66;90.33;99099.10;88939;1270;22580;-74
2023/01/11 09:25:03;;;;;;;143.20;77.40;;;;;;;3.67;90.16;99095.59;89010;1268;22528;-73
2023/01/11 09:27:05;;;;;;;136.10;76.90;;;;;;;3.70;90.24;99103.36;88999;1261;99255;-73
2023/01/11 09:29:07;;;;;;;136.80;75.50;;;;;;;3.73;90.22;99103.84;89075;1268;23082;-73
2023/01/11 09:31:08;;;;;;;131.60;76.20;;;;;;;3.76;90.14;99105.34;88926;1269;22519;-73
2023/01/11 09:33:10;;;;;;;73.60;42.60;;;;;;;3.79;90.17;99104.59;88962;1260;99406;-72
2023/01/11 09:35:14;;;;;;;61.80;38.50;;;;;;;3.81;90.32;99106.80;89080;1262;22703;-69
2023/01/11 09:37:16;;;;;;;67.80;38.30;;;;;;;3.83;90.04;99101.91;88952;1263;22577;-73
2023/01/11 09:39:21;;;;;;;66.40;37.10;;;;;;;3.87;90.08;99095.41;89010;1261;99239;-72
2023/01/11 09:42:02;;;;;;;47.40;31.40;;;;;;;3.93;90.25;99092.51;88958;1269;22632;-71
2023/01/11 09:44:17;;;;;;;41.20;25.50;;;;;;;4.00;89.98;99086.63;89042;1267;100342;-71
2023/01/11 09:46:19;;;;;;;47.70;29.00;;;;;;;4.05;90.22;99082.02;89213;1261;22666;-72
2023/01/11 09:48:35;;;;;;;44.40;28.40;;;;;;;4.14;90.09;99073.14;89092;1261;24535;-71
2023/01/11 09:50:47;;;;;;;47.10;27.90;;;;;;;4.26;90.22;99066.11;88927;1269;99063;-71
2023/01/11 09:52:51;;;;;;;;;;;;;;;4.39;90.32;99063.40;88944;1263;22651;-70
2023/01/11 09:54:55;;;;;;;42.60;25.70;;;;;;;4.49;90.10;99062.48;89097;1269;25222;-72
2023/01/11 09:57:10;;;;;;;33.30;21.50;;;;;;;4.58;90.05;99062.98;88973;1263;99474;-70
2023/01/11 09:59:45;;;;;;;47.00;27.50;;;;;;;4.66;89.82;99060.19;88996;1265;22650;-71
2023/01/11 10:01:59;;;;;;;41.40;26.30;;;;;;;4.78;89.80;99058.34;89108;1267;22544;-71